Watauga, Tennessee
Current Conditions -  °F | °C
As of 6:55 AM on Thursday 27 Nov 2014 (Local Time) from K0A9 Reporting Station
Overcast Overcast  
Wind Chill: 32°   Ceiling: 600
Heat Index: 32°   Visibility: 9mi
Dew Point: 30°   Wind: 3mph
Humidity: 93%   Direction: 240°WSW
Pressure: 30.03"   Gusts: NA
Location:  36.37°N, 82.3°W
Report Text: K0A9 271155Z AUTO 24003KT 9SM OVC006 00/M01 A3003 RMK
Loading
Personal Weather Stations






























Interactive Weather Map New forecast layout! Learn more

10-Day Weather Forecast

Advertisements
Track Severe Weather on mobile